createdAt,value
2023-02-09T00:01:02.655Z,102150.00
2023-02-09T00:03:30.245Z,102142.00
2023-02-09T00:06:00.413Z,102141.00
2023-02-09T00:08:28.014Z,102146.00
2023-02-09T00:10:55.500Z,102135.00
2023-02-09T00:13:23.355Z,102146.00
2023-02-09T00:15:51.960Z,102150.00
2023-02-09T00:18:19.640Z,102130.00
2023-02-09T00:20:54.864Z,102134.00
2023-02-09T00:23:22.840Z,102132.00
2023-02-09T00:25:50.221Z,102126.00
2023-02-09T00:28:17.607Z,102116.00
2023-02-09T00:30:45.328Z,102133.00
2023-02-09T00:33:13.214Z,102130.00
2023-02-09T00:35:41.258Z,102112.00
2023-02-09T00:38:09.160Z,102115.00
2023-02-09T00:40:37.957Z,102125.00
2023-02-09T00:43:05.786Z,102122.00
2023-02-09T00:45:33.450Z,102125.00
2023-02-09T00:48:01.162Z,102115.00
2023-02-09T00:50:29.440Z,102110.00
2023-02-09T00:52:56.748Z,102102.00
2023-02-09T00:55:24.483Z,102111.00
2023-02-09T00:57:52.475Z,102106.00
2023-02-09T01:00:20.744Z,102107.00
2023-02-09T01:02:48.160Z,102109.00
2023-02-09T01:05:15.448Z,102111.00
2023-02-09T01:07:42.747Z,102112.00
2023-02-09T01:10:10.853Z,102103.00
2023-02-09T01:12:40.308Z,102102.00
2023-02-09T01:15:10.205Z,102111.00
2023-02-09T01:17:37.689Z,102092.00
2023-02-09T01:20:06.913Z,102099.00
2023-02-09T01:22:35.513Z,102087.00
2023-02-09T01:25:02.879Z,102098.00
2023-02-09T01:27:30.178Z,102100.00
2023-02-09T01:29:57.780Z,102105.00
2023-02-09T01:32:25.753Z,102088.00
2023-02-09T01:34:53.305Z,102094.00
2023-02-09T01:37:21.003Z,102097.00
2023-02-09T01:39:48.677Z,102077.00
2023-02-09T01:42:16.575Z,102069.00
2023-02-09T01:45:07.036Z,102088.00
2023-02-09T01:47:41.076Z,102081.00
2023-02-09T01:50:08.949Z,102073.00
2023-02-09T01:52:36.437Z,102071.00
2023-02-09T01:55:07.355Z,102086.00
2023-02-09T01:57:37.919Z,102070.00
2023-02-09T02:00:09.545Z,102070.00
2023-02-09T02:02:38.005Z,102068.00
2023-02-09T02:05:07.729Z,102075.00
2023-02-09T02:07:41.636Z,102061.00
2023-02-09T02:10:09.296Z,102065.00
2023-02-09T02:12:37.679Z,102062.00
2023-02-09T02:15:05.735Z,102071.00
2023-02-09T02:17:51.863Z,102073.00
2023-02-09T02:20:50.813Z,102072.00
2023-02-09T02:23:26.946Z,102078.00
2023-02-09T02:26:29.069Z,102078.00
2023-02-09T02:29:22.967Z,102071.00
2023-02-09T02:32:24.792Z,102077.00
2023-02-09T02:34:58.982Z,102078.00
2023-02-09T02:37:37.886Z,102072.00
2023-02-09T02:40:14.314Z,102071.00
2023-02-09T02:42:52.109Z,102071.00
2023-02-09T02:45:41.068Z,102070.00
2023-02-09T02:48:20.430Z,102058.00
2023-02-09T02:50:53.995Z,102064.00
2023-02-09T02:53:24.710Z,102052.00
2023-02-09T02:55:54.939Z,102059.00
2023-02-09T02:58:23.585Z,102043.00
2023-02-09T03:00:53.621Z,102051.00
2023-02-09T03:03:24.714Z,102044.00
2023-02-09T03:05:53.184Z,102046.00
2023-02-09T03:08:20.533Z,102042.00
2023-02-09T03:10:48.217Z,102039.00
2023-02-09T03:13:38.245Z,102048.00
2023-02-09T03:16:24.406Z,102036.00
2023-02-09T03:19:04.127Z,102055.00
2023-02-09T03:21:41.960Z,102053.00
2023-02-09T03:24:16.896Z,102058.00
2023-02-09T03:26:49.405Z,102035.00
2023-02-09T03:29:18.843Z,102036.00
2023-02-09T03:31:48.228Z,102049.00
2023-02-09T03:34:16.646Z,102048.00
2023-02-09T03:36:49.108Z,102056.00
2023-02-09T03:39:16.463Z,102054.00
2023-02-09T03:41:43.765Z,102046.00
2023-02-09T03:44:26.693Z,102038.00
2023-02-09T03:46:55.071Z,102039.00
2023-02-09T03:49:23.605Z,102041.00
2023-02-09T03:51:51.098Z,102036.00
2023-02-09T03:54:18.393Z,102035.00
2023-02-09T03:56:45.783Z,102032.00
2023-02-09T03:59:13.036Z,102034.00
2023-02-09T04:01:40.366Z,102020.00
2023-02-09T04:04:08.026Z,102026.00
2023-02-09T04:06:36.224Z,102026.00
2023-02-09T04:09:05.069Z,102024.00
2023-02-09T04:11:32.893Z,102017.00
2023-02-09T04:14:00.156Z,102013.00
2023-02-09T04:16:27.666Z,102008.00
2023-02-09T04:18:54.998Z,102014.00
2023-02-09T04:21:22.305Z,102025.00
2023-02-09T04:23:50.183Z,102013.00
2023-02-09T04:26:17.799Z,102016.00
2023-02-09T04:28:45.305Z,102020.00
2023-02-09T04:31:12.845Z,102013.00
2023-02-09T04:33:40.284Z,102011.00
2023-02-09T04:36:09.137Z,102011.00
2023-02-09T04:38:36.571Z,102007.00
2023-02-09T04:41:05.260Z,102008.00
2023-02-09T04:43:33.245Z,102004.00
2023-02-09T04:46:00.757Z,102009.00
2023-02-09T04:48:29.700Z,102014.00
2023-02-09T04:50:57.758Z,102020.00
2023-02-09T04:53:25.027Z,102006.00
2023-02-09T04:55:52.935Z,102002.00
2023-02-09T04:58:39.619Z,101990.00
2023-02-09T05:01:07.536Z,101991.00
2023-02-09T05:03:35.201Z,101972.00
2023-02-09T05:06:04.614Z,101994.00
2023-02-09T05:08:32.429Z,101985.00
2023-02-09T05:10:59.684Z,101987.00
2023-02-09T05:13:27.841Z,101986.00
2023-02-09T05:15:55.348Z,101993.00
2023-02-09T05:18:23.765Z,101989.00
2023-02-09T05:20:52.076Z,101992.00
2023-02-09T05:23:19.336Z,101983.00
2023-02-09T05:25:47.647Z,101975.00
2023-02-09T05:28:15.358Z,101983.00
2023-02-09T05:30:43.372Z,101977.00
2023-02-09T05:33:10.736Z,102000.00
2023-02-09T05:35:37.971Z,102000.00
2023-02-09T05:38:05.325Z,101991.00
2023-02-09T05:40:32.608Z,101997.00
2023-02-09T05:43:01.716Z,101992.00
2023-02-09T05:45:28.947Z,101993.00
2023-02-09T05:47:56.955Z,101990.00
2023-02-09T05:50:24.207Z,101982.00
2023-02-09T05:52:51.441Z,101990.00
2023-02-09T05:55:18.822Z,101988.00
2023-02-09T05:57:46.114Z,101982.00
2023-02-09T06:00:14.650Z,102001.00
2023-02-09T06:02:42.014Z,101993.00
2023-02-09T06:05:10.092Z,101998.00
2023-02-09T06:07:37.396Z,101989.00
2023-02-09T06:10:05.001Z,101995.00
2023-02-09T06:12:32.277Z,102006.00
2023-02-09T06:14:59.582Z,101993.00
2023-02-09T06:17:26.822Z,101978.00
2023-02-09T06:19:54.096Z,101979.00
2023-02-09T06:22:22.007Z,101991.00
2023-02-09T06:24:49.281Z,102001.00
2023-02-09T06:27:16.536Z,101991.00
2023-02-09T06:29:43.885Z,101991.00
2023-02-09T06:32:11.294Z,101998.00
2023-02-09T06:34:38.625Z,101990.00
2023-02-09T06:37:05.860Z,101994.00
2023-02-09T06:39:33.767Z,102000.00
2023-02-09T06:42:01.091Z,101993.00
2023-02-09T06:44:28.479Z,101994.00
2023-02-09T06:46:55.686Z,101992.00
2023-02-09T06:49:24.576Z,101982.00
2023-02-09T06:51:51.955Z,101982.00
2023-02-09T06:54:20.056Z,101992.00
2023-02-09T06:56:48.088Z,101994.00
2023-02-09T06:59:15.348Z,101996.00
2023-02-09T07:01:42.705Z,101986.00
2023-02-09T07:04:10.019Z,101997.00
2023-02-09T07:06:37.272Z,102005.00
2023-02-09T07:09:04.641Z,101995.00
2023-02-09T07:11:31.896Z,102002.00
2023-02-09T07:13:59.895Z,102006.00
2023-02-09T07:16:27.263Z,102008.00
2023-02-09T07:18:54.528Z,102011.00
2023-02-09T07:21:21.992Z,102023.00
2023-02-09T07:23:49.397Z,102020.00
2023-02-09T07:26:18.132Z,102016.00
2023-02-09T07:28:45.567Z,102019.00
2023-02-09T07:31:15.687Z,102005.00
2023-02-09T07:33:42.960Z,102011.00
2023-02-09T07:36:12.294Z,102017.00
2023-02-09T07:38:40.262Z,102025.00
2023-02-09T07:41:12.511Z,102026.00
2023-02-09T07:43:39.742Z,102020.00
2023-02-09T07:46:08.387Z,102012.00
2023-02-09T07:48:36.817Z,102008.00
2023-02-09T07:51:04.596Z,102011.00
2023-02-09T07:53:32.824Z,102019.00
2023-02-09T07:56:00.134Z,102016.00
2023-02-09T07:58:27.492Z,102008.00
2023-02-09T08:00:54.733Z,102010.00
2023-02-09T08:03:23.666Z,102015.00
2023-02-09T08:05:59.535Z,102025.00
2023-02-09T08:08:26.837Z,102017.00
2023-02-09T08:10:56.249Z,102012.00
2023-02-09T08:13:25.050Z,102013.00
2023-02-09T08:15:55.294Z,102013.00
2023-02-09T08:18:24.686Z,102015.00
2023-02-09T08:20:53.137Z,102024.00
2023-02-09T08:23:23.392Z,102020.00
2023-02-09T08:25:51.191Z,102021.00
2023-02-09T08:28:19.166Z,102015.00
2023-02-09T08:30:47.432Z,102016.00
2023-02-09T08:33:14.862Z,102017.00
2023-02-09T08:35:42.177Z,102018.00
2023-02-09T08:38:10.138Z,102010.00
2023-02-09T08:40:40.638Z,102017.00
2023-02-09T08:43:08.136Z,102005.00
2023-02-09T08:45:36.823Z,102006.00
2023-02-09T08:48:05.994Z,101996.00
2023-02-09T08:50:33.339Z,102007.00
2023-02-09T08:53:02.201Z,101989.00
2023-02-09T08:55:30.344Z,101973.00
2023-02-09T08:57:57.658Z,101962.00
2023-02-09T09:00:25.091Z,101980.00
2023-02-09T09:02:52.321Z,101981.00
2023-02-09T09:05:19.552Z,101978.00
2023-02-09T09:07:47.460Z,101987.00
2023-02-09T09:10:14.822Z,101985.00
2023-02-09T09:12:42.791Z,101988.00
2023-02-09T09:15:10.449Z,101986.00
2023-02-09T09:17:37.700Z,101984.00
2023-02-09T09:20:06.196Z,101975.00
2023-02-09T09:22:33.619Z,101981.00
2023-02-09T09:25:00.901Z,101982.00
2023-02-09T09:27:28.235Z,101976.00
2023-02-09T09:29:56.165Z,101973.00
2023-02-09T09:32:24.110Z,101980.00
2023-02-09T09:34:53.506Z,101977.00
2023-02-09T09:37:21.028Z,101983.00
2023-02-09T09:39:48.531Z,101985.00
2023-02-09T09:42:23.772Z,101973.00
2023-02-09T09:44:51.634Z,101979.00
2023-02-09T09:47:25.931Z,101983.00
2023-02-09T09:49:53.185Z,101984.00
2023-02-09T09:52:28.119Z,101974.00
2023-02-09T09:54:55.403Z,101981.00
2023-02-09T09:57:27.042Z,101980.00
2023-02-09T09:59:55.863Z,101982.00
2023-02-09T10:02:28.748Z,101987.00
2023-02-09T10:05:09.998Z,101981.00
2023-02-09T10:07:39.951Z,101982.00
2023-02-09T10:10:17.580Z,101996.00
2023-02-09T10:12:48.234Z,101988.00
2023-02-09T10:15:27.136Z,101996.00
2023-02-09T10:17:55.501Z,102000.00
2023-02-09T10:20:47.966Z,102000.00
2023-02-09T10:23:23.901Z,101991.00
2023-02-09T10:25:58.367Z,101986.00
2023-02-09T10:28:27.568Z,101986.00
2023-02-09T10:30:59.333Z,101986.00
2023-02-09T10:33:29.209Z,101974.00
2023-02-09T10:36:00.321Z,101967.00
2023-02-09T10:38:33.379Z,101968.00
2023-02-09T10:41:01.555Z,101965.00
2023-02-09T10:43:31.896Z,101958.00
2023-02-09T10:46:00.811Z,101956.00
2023-02-09T10:48:38.615Z,101943.00
2023-02-09T10:51:07.647Z,101949.00
2023-02-09T10:53:37.836Z,101942.00
2023-02-09T10:56:14.134Z,101932.00
2023-02-09T10:58:41.587Z,101941.00
2023-02-09T11:01:17.794Z,101932.00
2023-02-09T11:04:00.361Z,101937.00
2023-02-09T11:06:28.116Z,101927.00
2023-02-09T11:09:01.545Z,101925.00
2023-02-09T11:11:31.644Z,101936.00
2023-02-09T11:13:59.821Z,101934.00
2023-02-09T11:16:48.489Z,101921.00
2023-02-09T11:19:30.017Z,101921.00
2023-02-09T11:22:05.194Z,101920.00
2023-02-09T11:24:46.515Z,101909.00
2023-02-09T11:27:26.236Z,101908.00
2023-02-09T11:30:03.584Z,101907.00
2023-02-09T11:32:39.329Z,101901.00
2023-02-09T11:35:12.349Z,101899.00
2023-02-09T11:37:51.501Z,101895.00
2023-02-09T11:40:37.537Z,101887.00
2023-02-09T11:43:16.985Z,101879.00
2023-02-09T11:45:47.472Z,101862.00
2023-02-09T11:48:23.156Z,101859.00
2023-02-09T11:51:00.576Z,101858.00
2023-02-09T11:53:34.714Z,101846.00
2023-02-09T11:56:04.909Z,101845.00
2023-02-09T11:58:42.517Z,101838.00
2023-02-09T12:01:18.848Z,101839.00
2023-02-09T12:03:56.581Z,101839.00
2023-02-09T12:06:25.311Z,101840.00
2023-02-09T12:09:03.026Z,101845.00
2023-02-09T12:11:42.749Z,101832.00
2023-02-09T12:14:20.307Z,101836.00
2023-02-09T12:16:54.731Z,101832.00
2023-02-09T12:19:30.673Z,101831.00
2023-02-09T12:22:18.727Z,101819.00
2023-02-09T12:25:13.649Z,101810.00
2023-02-09T12:27:42.860Z,101798.00
2023-02-09T12:30:43.429Z,101790.00
2023-02-09T12:33:18.959Z,101788.00
2023-02-09T12:36:00.156Z,101791.00
2023-02-09T12:38:49.336Z,101797.00
2023-02-09T12:41:19.073Z,101796.00
2023-02-09T12:43:47.237Z,101784.00
2023-02-09T12:46:26.102Z,101781.00
2023-02-09T12:49:20.028Z,101759.00
2023-02-09T12:52:11.969Z,101756.00
2023-02-09T12:54:42.360Z,101757.00
2023-02-09T12:57:52.895Z,101759.00
2023-02-09T13:00:40.585Z,101759.00
2023-02-09T13:03:18.783Z,101762.00
2023-02-09T13:05:47.450Z,101757.00
2023-02-09T13:08:34.410Z,101739.00
2023-02-09T13:11:06.695Z,101740.00
2023-02-09T13:13:41.872Z,101725.00
2023-02-09T13:16:44.905Z,101729.00
2023-02-09T13:19:46.958Z,101730.00
2023-02-09T13:22:29.751Z,101738.00
2023-02-09T13:25:00.526Z,101753.00
2023-02-09T13:27:29.321Z,101741.00
2023-02-09T13:29:58.769Z,101738.00
2023-02-09T13:32:43.221Z,101755.00
2023-02-09T13:35:16.376Z,101750.00
2023-02-09T13:37:47.286Z,101760.00
2023-02-09T13:40:17.888Z,101758.00
2023-02-09T13:42:54.880Z,101769.00
2023-02-09T13:45:23.950Z,101777.00
2023-02-09T13:47:51.503Z,101778.00
2023-02-09T13:50:21.368Z,101772.00
2023-02-09T13:52:50.086Z,101777.00
2023-02-09T13:55:20.053Z,101776.00
2023-02-09T13:57:58.434Z,101781.00
2023-02-09T14:00:28.413Z,101787.00
2023-02-09T14:02:58.710Z,101780.00
2023-02-09T14:05:34.328Z,101771.00
2023-02-09T14:08:02.142Z,101781.00
2023-02-09T14:10:30.829Z,101778.00
2023-02-09T14:13:03.160Z,101778.00
2023-02-09T14:15:53.355Z,101773.00
2023-02-09T14:18:33.184Z,101775.00
2023-02-09T14:21:02.495Z,101768.00
2023-02-09T14:23:32.292Z,101762.00
2023-02-09T14:26:07.164Z,101769.00
2023-02-09T14:28:36.761Z,101763.00
2023-02-09T14:31:05.406Z,101769.00
2023-02-09T14:33:38.120Z,101765.00
2023-02-09T14:36:06.898Z,101770.00
2023-02-09T14:38:41.741Z,101763.00
2023-02-09T14:41:28.499Z,101767.00
2023-02-09T14:44:01.348Z,101767.00
2023-02-09T14:46:45.280Z,101774.00
2023-02-09T14:49:12.669Z,101771.00
2023-02-09T14:51:40.033Z,101769.00
2023-02-09T14:54:24.070Z,101759.00
2023-02-09T14:56:52.848Z,101754.00
2023-02-09T14:59:21.756Z,101755.00
2023-02-09T15:01:51.161Z,101750.00
2023-02-09T15:04:18.699Z,101750.00
2023-02-09T15:06:47.863Z,101760.00
2023-02-09T15:09:21.873Z,101759.00
2023-02-09T15:12:04.171Z,101765.00
2023-02-09T15:14:36.485Z,101759.00
2023-02-09T15:17:14.774Z,101760.00
2023-02-09T15:19:42.439Z,101761.00
2023-02-09T15:22:12.876Z,101757.00
2023-02-09T15:24:41.061Z,101763.00
2023-02-09T15:27:17.114Z,101756.00
2023-02-09T15:29:45.679Z,101771.00
2023-02-09T15:32:14.846Z,101774.00
2023-02-09T15:34:42.690Z,101780.00
2023-02-09T15:37:20.243Z,101774.00
2023-02-09T15:39:48.580Z,101774.00
2023-02-09T15:42:35.679Z,101786.00
2023-02-09T15:45:35.604Z,101795.00
2023-02-09T15:48:03.845Z,101789.00
2023-02-09T15:50:33.398Z,101777.00
2023-02-09T15:53:02.768Z,101788.00
2023-02-09T15:55:30.743Z,101794.00
2023-02-09T15:57:58.320Z,101795.00
2023-02-09T16:00:28.390Z,101788.00
2023-02-09T16:02:57.927Z,101774.00
2023-02-09T16:05:27.870Z,101780.00
2023-02-09T16:07:55.884Z,101776.00
2023-02-09T16:10:24.682Z,101770.00
2023-02-09T16:12:52.618Z,101779.00
2023-02-09T16:15:23.401Z,101768.00
2023-02-09T16:17:51.608Z,101779.00
2023-02-09T16:20:20.010Z,101784.00
2023-02-09T16:22:49.265Z,101780.00
2023-02-09T16:25:18.792Z,101785.00
2023-02-09T16:27:46.138Z,101767.00
2023-02-09T16:30:18.603Z,101779.00
2023-02-09T16:32:46.385Z,101784.00
2023-02-09T16:35:17.194Z,101775.00
2023-02-09T16:37:46.602Z,101788.00
2023-02-09T16:40:32.511Z,101799.00
2023-02-09T16:43:01.127Z,101799.00
2023-02-09T16:45:30.510Z,101806.00
2023-02-09T16:47:59.560Z,101798.00
2023-02-09T16:50:32.697Z,101812.00
2023-02-09T16:53:02.128Z,101799.00
2023-02-09T16:55:31.643Z,101807.00
2023-02-09T16:58:00.978Z,101802.00
2023-02-09T17:00:30.340Z,101793.00
2023-02-09T17:03:00.052Z,101800.00
2023-02-09T17:05:31.277Z,101815.00
2023-02-09T17:08:01.561Z,101819.00
2023-02-09T17:10:31.312Z,101817.00
2023-02-09T17:13:00.948Z,101812.00
2023-02-09T17:15:31.727Z,101817.00
2023-02-09T17:18:02.948Z,101822.00
2023-02-09T17:20:35.974Z,101815.00
2023-02-09T17:23:03.451Z,101813.00
2023-02-09T17:25:30.859Z,101813.00
2023-02-09T17:27:58.226Z,101824.00
2023-02-09T17:30:25.551Z,101824.00
2023-02-09T17:32:58.807Z,101832.00
2023-02-09T17:35:53.103Z,101852.00
2023-02-09T17:38:21.893Z,101850.00
2023-02-09T17:40:49.340Z,101851.00
2023-02-09T17:43:16.755Z,101861.00
2023-02-09T17:45:48.279Z,101851.00
2023-02-09T17:48:16.547Z,101852.00
2023-02-09T17:50:45.628Z,101844.00
2023-02-09T17:53:19.232Z,101850.00
2023-02-09T17:55:47.460Z,101840.00
2023-02-09T17:58:15.818Z,101847.00
2023-02-09T18:00:44.358Z,101832.00
2023-02-09T18:03:14.270Z,101833.00
2023-02-09T18:05:41.935Z,101840.00
2023-02-09T18:08:09.581Z,101833.00
2023-02-09T18:10:38.070Z,101829.00
2023-02-09T18:13:05.355Z,101833.00
2023-02-09T18:15:35.518Z,101832.00
2023-02-09T18:18:03.499Z,101839.00
2023-02-09T18:20:32.823Z,101835.00
2023-02-09T18:23:01.616Z,101837.00
2023-02-09T18:25:31.044Z,101827.00
2023-02-09T18:27:59.189Z,101829.00
2023-02-09T18:30:29.130Z,101819.00
2023-02-09T18:32:57.164Z,101818.00
2023-02-09T18:35:26.792Z,101819.00
2023-02-09T18:37:54.150Z,101816.00
2023-02-09T18:40:21.613Z,101816.00
2023-02-09T18:42:49.298Z,101822.00
2023-02-09T18:45:19.235Z,101824.00
2023-02-09T18:47:47.436Z,101814.00
2023-02-09T18:50:17.935Z,101825.00
2023-02-09T18:52:46.939Z,101832.00
2023-02-09T18:55:14.833Z,101830.00
2023-02-09T18:57:42.199Z,101823.00
2023-02-09T19:00:12.073Z,101818.00
2023-02-09T19:02:40.511Z,101832.00
2023-02-09T19:05:08.603Z,101829.00
2023-02-09T19:07:36.423Z,101829.00
2023-02-09T19:10:04.462Z,101833.00
2023-02-09T19:12:31.807Z,101837.00
2023-02-09T19:14:59.330Z,101835.00
2023-02-09T19:17:26.864Z,101826.00
2023-02-09T19:19:57.605Z,101840.00
2023-02-09T19:22:25.261Z,101841.00
2023-02-09T19:24:55.476Z,101848.00
2023-02-09T19:27:23.634Z,101850.00
2023-02-09T19:29:54.115Z,101854.00
2023-02-09T19:32:21.718Z,101859.00
2023-02-09T19:34:49.604Z,101857.00
2023-02-09T19:37:20.027Z,101852.00
2023-02-09T19:39:52.285Z,101859.00
2023-02-09T19:42:20.409Z,101872.00
2023-02-09T19:44:48.353Z,101850.00
2023-02-09T19:47:15.991Z,101871.00
2023-02-09T19:49:44.688Z,101869.00
2023-02-09T19:52:11.916Z,101873.00
2023-02-09T19:54:39.797Z,101872.00
2023-02-09T19:57:07.083Z,101856.00
2023-02-09T19:59:37.357Z,101846.00
2023-02-09T20:02:05.026Z,101845.00
2023-02-09T20:04:34.041Z,101847.00
2023-02-09T20:07:02.959Z,101843.00
2023-02-09T20:09:30.158Z,101837.00
2023-02-09T20:11:58.066Z,101856.00
2023-02-09T20:14:25.354Z,101846.00
2023-02-09T20:16:53.466Z,101846.00
2023-02-09T20:19:20.945Z,101849.00
2023-02-09T20:21:48.331Z,101852.00
2023-02-09T20:24:15.670Z,101860.00
2023-02-09T20:26:45.178Z,101851.00
2023-02-09T20:29:15.637Z,101838.00
2023-02-09T20:31:43.225Z,101842.00
2023-02-09T20:34:12.601Z,101841.00
2023-02-09T20:36:41.172Z,101853.00
2023-02-09T20:39:12.584Z,101853.00
2023-02-09T20:42:39.202Z,101840.00
2023-02-09T20:45:50.366Z,101843.00
2023-02-09T20:51:27.107Z,101845.00
2023-02-09T20:53:54.376Z,101844.00
2023-02-09T21:00:24.093Z,101828.00
2023-02-09T21:02:57.533Z,101822.00
2023-02-09T21:05:45.574Z,101827.00
2023-02-09T21:11:29.853Z,101846.00
2023-02-09T21:14:00.890Z,101845.00
2023-02-09T21:23:56.641Z,101859.00
2023-02-09T21:26:48.012Z,101860.00
2023-02-09T21:29:28.375Z,101869.00
2023-02-09T21:36:33.727Z,101883.00
2023-02-09T21:40:15.997Z,101891.00
2023-02-09T21:43:14.046Z,101878.00
2023-02-09T21:45:41.628Z,101881.00
2023-02-09T21:48:08.894Z,101876.00
2023-02-09T21:50:36.172Z,101883.00
2023-02-09T21:53:06.311Z,101880.00
2023-02-09T21:55:55.358Z,101873.00
2023-02-09T21:58:58.057Z,101885.00
2023-02-09T22:02:10.524Z,101893.00
2023-02-09T22:04:47.794Z,101885.00
2023-02-09T22:09:04.093Z,101872.00
2023-02-09T22:11:20.305Z,101882.00
2023-02-09T22:13:54.991Z,101885.00
2023-02-09T22:16:26.213Z,101878.00
2023-02-09T22:20:02.341Z,101885.00
2023-02-09T22:22:03.869Z,101884.00
2023-02-09T22:24:50.371Z,101895.00
2023-02-09T22:27:23.422Z,101902.00
2023-02-09T22:29:50.750Z,101900.00
2023-02-09T22:32:19.764Z,101905.00
2023-02-09T22:34:47.010Z,101900.00
2023-02-09T22:37:14.269Z,101899.00
2023-02-09T22:39:41.514Z,101904.00
2023-02-09T22:42:08.774Z,101918.00
2023-02-09T22:44:36.047Z,101902.00
2023-02-09T22:47:03.446Z,101911.00
2023-02-09T22:49:31.545Z,101914.00
2023-02-09T22:51:58.819Z,101906.00
2023-02-09T22:54:26.079Z,101900.00
2023-02-09T22:56:53.345Z,101899.00
2023-02-09T22:59:20.812Z,101897.00
2023-02-09T23:01:48.288Z,101891.00
2023-02-09T23:04:15.605Z,101890.00
2023-02-09T23:06:43.667Z,101896.00
2023-02-09T23:09:12.309Z,101893.00
2023-02-09T23:11:39.639Z,101895.00
2023-02-09T23:14:11.167Z,101905.00
2023-02-09T23:16:40.216Z,101900.00
2023-02-09T23:19:12.110Z,101906.00
2023-02-09T23:21:41.188Z,101901.00
2023-02-09T23:24:10.277Z,101894.00
2023-02-09T23:26:38.411Z,101889.00
2023-02-09T23:29:07.421Z,101893.00
2023-02-09T23:31:34.834Z,101901.00
2023-02-09T23:34:02.322Z,101901.00
2023-02-09T23:36:31.523Z,101893.00
2023-02-09T23:39:00.448Z,101905.00
2023-02-09T23:41:29.082Z,101909.00
2023-02-09T23:43:57.288Z,101912.00
2023-02-09T23:46:28.413Z,101913.00
2023-02-09T23:48:56.522Z,101913.00
2023-02-09T23:51:25.933Z,101913.00
2023-02-09T23:53:54.832Z,101913.00
2023-02-09T23:56:22.578Z,101907.00
2023-02-09T23:58:52.276Z,101912.00
